sensor_id;sensor_type;location;lat;lon;timestamp;pressure;altitude;pressure_sealevel;temperature;humidity
61963;BME280;47927;42.646;23.096;2023-04-23T00:00:33;92052.66;;;7.25;61.27
61963;BME280;47927;42.646;23.096;2023-04-23T00:03:05;91977.31;;;6.75;61.58
61963;BME280;47927;42.646;23.096;2023-04-23T00:05:35;92055.59;;;7.43;61.11
61963;BME280;47927;42.646;23.096;2023-04-23T00:08:02;92055.06;;;7.53;60.56
61963;BME280;47927;42.646;23.096;2023-04-23T00:10:28;91963.56;;;7.10;59.80
61963;BME280;47927;42.646;23.096;2023-04-23T00:12:53;91992.38;;;7.28;59.35
61963;BME280;47927;42.646;23.096;2023-04-23T00:15:19;92052.31;;;7.65;59.29
61963;BME280;47927;42.646;23.096;2023-04-23T00:17:47;92047.19;;;7.69;59.07
61963;BME280;47927;42.646;23.096;2023-04-23T00:20:14;91984.22;;;7.06;59.59
61963;BME280;47927;42.646;23.096;2023-04-23T00:22:41;92041.16;;;7.42;59.59
61963;BME280;47927;42.646;23.096;2023-04-23T00:25:08;92044.91;;;7.44;59.54
61963;BME280;47927;42.646;23.096;2023-04-23T00:27:33;92001.94;;;7.04;60.11
61963;BME280;47927;42.646;23.096;2023-04-23T00:29:59;92031.31;;;7.31;57.24
61963;BME280;47927;42.646;23.096;2023-04-23T00:32:28;91936.00;;;6.63;57.30
61963;BME280;47927;42.646;23.096;2023-04-23T00:34:54;92050.97;;;7.33;57.59
61963;BME280;47927;42.646;23.096;2023-04-23T00:37:21;92051.72;;;7.33;57.50
61963;BME280;47927;42.646;23.096;2023-04-23T00:39:46;91944.75;;;6.55;58.04
61963;BME280;47927;42.646;23.096;2023-04-23T00:42:13;91948.75;;;6.52;58.25
61963;BME280;47927;42.646;23.096;2023-04-23T00:44:41;91935.94;;;6.24;58.96
61963;BME280;47927;42.646;23.096;2023-04-23T00:47:07;92052.13;;;6.80;59.82
61963;BME280;47927;42.646;23.096;2023-04-23T00:49:33;92053.28;;;6.83;59.95
61963;BME280;47927;42.646;23.096;2023-04-23T00:51:59;91968.81;;;6.39;59.00
61963;BME280;47927;42.646;23.096;2023-04-23T00:54:25;92040.50;;;6.90;59.02
61963;BME280;47927;42.646;23.096;2023-04-23T00:56:52;92054.03;;;6.99;58.57
61963;BME280;47927;42.646;23.096;2023-04-23T00:59:18;91968.97;;;6.47;58.30
61963;BME280;47927;42.646;23.096;2023-04-23T01:01:44;92051.44;;;6.99;58.44
61963;BME280;47927;42.646;23.096;2023-04-23T01:04:12;92034.84;;;6.84;58.68
61963;BME280;47927;42.646;23.096;2023-04-23T01:06:39;92047.25;;;6.95;58.41
61963;BME280;47927;42.646;23.096;2023-04-23T01:09:06;92045.41;;;6.95;58.11
61963;BME280;47927;42.646;23.096;2023-04-23T01:11:37;91980.91;;;6.35;58.72
61963;BME280;47927;42.646;23.096;2023-04-23T01:14:03;92049.81;;;6.75;59.52
61963;BME280;47927;42.646;23.096;2023-04-23T01:16:29;92048.31;;;6.74;59.65
61963;BME280;47927;42.646;23.096;2023-04-23T01:18:55;92054.31;;;6.78;59.81
61963;BME280;47927;42.646;23.096;2023-04-23T01:21:22;92051.44;;;6.83;59.65
61963;BME280;47927;42.646;23.096;2023-04-23T01:23:48;92015.84;;;6.61;59.77
61963;BME280;47927;42.646;23.096;2023-04-23T01:26:14;92026.59;;;6.63;59.84
61963;BME280;47927;42.646;23.096;2023-04-23T01:28:41;92053.03;;;6.37;61.75
61963;BME280;47927;42.646;23.096;2023-04-23T01:31:08;92015.63;;;6.19;61.69
61963;BME280;47927;42.646;23.096;2023-04-23T01:33:34;91990.38;;;6.12;61.18
61963;BME280;47927;42.646;23.096;2023-04-23T01:36:01;92040.41;;;6.67;59.69
61963;BME280;47927;42.646;23.096;2023-04-23T01:38:29;92035.81;;;6.60;58.78
61963;BME280;47927;42.646;23.096;2023-04-23T01:40:55;92050.72;;;6.83;58.65
61963;BME280;47927;42.646;23.096;2023-04-23T01:43:21;91999.53;;;6.41;58.92
61963;BME280;47927;42.646;23.096;2023-04-23T01:45:47;91966.94;;;6.05;59.35
61963;BME280;47927;42.646;23.096;2023-04-23T01:48:13;92055.28;;;6.54;59.79
61963;BME280;47927;42.646;23.096;2023-04-23T01:50:39;92055.03;;;6.44;60.35
61963;BME280;47927;42.646;23.096;2023-04-23T01:53:05;92001.97;;;6.18;60.20
61963;BME280;47927;42.646;23.096;2023-04-23T01:55:30;92062.44;;;6.61;60.20
61963;BME280;47927;42.646;23.096;2023-04-23T01:57:57;92053.34;;;6.67;59.92
61963;BME280;47927;42.646;23.096;2023-04-23T02:00:22;92056.84;;;6.59;59.85
61963;BME280;47927;42.646;23.096;2023-04-23T02:02:48;91996.47;;;6.04;60.34
61963;BME280;47927;42.646;23.096;2023-04-23T02:05:17;92064.47;;;6.52;60.72
61963;BME280;47927;42.646;23.096;2023-04-23T02:07:45;91951.75;;;5.87;60.74
61963;BME280;47927;42.646;23.096;2023-04-23T02:10:11;91948.16;;;5.76;60.53
61963;BME280;47927;42.646;23.096;2023-04-23T02:12:37;92058.72;;;6.43;60.85
61963;BME280;47927;42.646;23.096;2023-04-23T02:15:04;92060.81;;;6.37;60.84
61963;BME280;47927;42.646;23.096;2023-04-23T02:17:30;92058.22;;;6.37;61.13
61963;BME280;47927;42.646;23.096;2023-04-23T02:19:56;91966.09;;;5.69;60.92
61963;BME280;47927;42.646;23.096;2023-04-23T02:22:22;92050.69;;;6.00;61.72
61963;BME280;47927;42.646;23.096;2023-04-23T02:24:53;92052.47;;;6.28;61.09
61963;BME280;47927;42.646;23.096;2023-04-23T02:27:19;92027.81;;;6.18;61.01
61963;BME280;47927;42.646;23.096;2023-04-23T02:29:46;92050.28;;;6.46;60.66
61963;BME280;47927;42.646;23.096;2023-04-23T02:32:12;92010.97;;;6.24;60.18
61963;BME280;47927;42.646;23.096;2023-04-23T02:34:37;92061.94;;;6.55;60.11
61963;BME280;47927;42.646;23.096;2023-04-23T02:37:03;92056.53;;;6.29;60.68
61963;BME280;47927;42.646;23.096;2023-04-23T02:39:30;92050.78;;;6.35;59.88
61963;BME280;47927;42.646;23.096;2023-04-23T02:41:56;92055.84;;;6.48;59.73
61963;BME280;47927;42.646;23.096;2023-04-23T02:44:23;92057.38;;;6.49;59.62
61963;BME280;47927;42.646;23.096;2023-04-23T02:46:49;92044.34;;;6.29;60.50
61963;BME280;47927;42.646;23.096;2023-04-23T02:49:14;92057.53;;;6.24;61.60
61963;BME280;47927;42.646;23.096;2023-04-23T02:51:40;92052.03;;;6.42;61.13
61963;BME280;47927;42.646;23.096;2023-04-23T02:54:06;92020.56;;;6.24;60.58
61963;BME280;47927;42.646;23.096;2023-04-23T02:56:32;91989.63;;;5.96;60.61
61963;BME280;47927;42.646;23.096;2023-04-23T02:58:57;91988.69;;;6.04;59.28
61963;BME280;47927;42.646;23.096;2023-04-23T03:01:23;92028.41;;;6.27;59.01
61963;BME280;47927;42.646;23.096;2023-04-23T03:03:49;91864.88;;;5.03;59.45
61963;BME280;47927;42.646;23.096;2023-04-23T03:06:15;92046.94;;;6.29;60.19
61963;BME280;47927;42.646;23.096;2023-04-23T03:08:40;92005.31;;;6.03;60.63
61963;BME280;47927;42.646;23.096;2023-04-23T03:11:06;92056.31;;;6.34;60.81
61963;BME280;47927;42.646;23.096;2023-04-23T03:13:31;92038.91;;;5.87;61.54
61963;BME280;47927;42.646;23.096;2023-04-23T03:15:57;92065.50;;;5.87;62.35
61963;BME280;47927;42.646;23.096;2023-04-23T03:18:24;92017.53;;;5.74;62.08
61963;BME280;47927;42.646;23.096;2023-04-23T03:20:52;92047.47;;;5.91;62.24
61963;BME280;47927;42.646;23.096;2023-04-23T03:23:19;92065.56;;;6.19;62.36
61963;BME280;47927;42.646;23.096;2023-04-23T03:25:46;92069.13;;;6.46;61.97
61963;BME280;47927;42.646;23.096;2023-04-23T03:28:12;92066.28;;;6.67;61.33
61963;BME280;47927;42.646;23.096;2023-04-23T03:30:38;92060.50;;;6.74;60.98
61963;BME280;47927;42.646;23.096;2023-04-23T03:33:03;91991.53;;;6.14;61.39
61963;BME280;47927;42.646;23.096;2023-04-23T03:35:29;92062.56;;;6.84;60.92
61963;BME280;47927;42.646;23.096;2023-04-23T03:37:57;92066.63;;;7.01;59.30
61963;BME280;47927;42.646;23.096;2023-04-23T03:40:24;92018.09;;;6.62;59.62
61963;BME280;47927;42.646;23.096;2023-04-23T03:42:53;92069.94;;;7.01;59.21
61963;BME280;47927;42.646;23.096;2023-04-23T03:45:25;92073.59;;;7.16;58.55
61963;BME280;47927;42.646;23.096;2023-04-23T03:47:51;92075.25;;;7.24;57.78
61963;BME280;47927;42.646;23.096;2023-04-23T03:50:17;92049.88;;;7.14;58.28
61963;BME280;47927;42.646;23.096;2023-04-23T03:52:47;92005.56;;;7.00;57.71
61963;BME280;47927;42.646;23.096;2023-04-23T03:55:22;92072.22;;;7.61;57.14
61963;BME280;47927;42.646;23.096;2023-04-23T03:57:48;92072.59;;;7.60;57.88
61963;BME280;47927;42.646;23.096;2023-04-23T04:00:22;92076.59;;;8.92;56.57
61963;BME280;47927;42.646;23.096;2023-04-23T04:02:48;92006.28;;;9.78;51.70
61963;BME280;47927;42.646;23.096;2023-04-23T04:05:13;92078.56;;;11.40;49.50
61963;BME280;47927;42.646;23.096;2023-04-23T04:07:39;92061.72;;;12.50;46.64
61963;BME280;47927;42.646;23.096;2023-04-23T04:10:05;92045.63;;;12.98;45.14
61963;BME280;47927;42.646;23.096;2023-04-23T04:12:32;92085.19;;;13.32;44.85
61963;BME280;47927;42.646;23.096;2023-04-23T04:14:57;92087.06;;;13.32;44.33
61963;BME280;47927;42.646;23.096;2023-04-23T04:17:23;92080.69;;;14.28;42.89
61963;BME280;47927;42.646;23.096;2023-04-23T04:20:02;92026.19;;;15.06;40.98
61963;BME280;47927;42.646;23.096;2023-04-23T04:22:28;92084.78;;;16.02;39.94
61963;BME280;47927;42.646;23.096;2023-04-23T04:24:53;92088.53;;;16.31;38.96
61963;BME280;47927;42.646;23.096;2023-04-23T04:27:19;92101.75;;;16.24;38.65
61963;BME280;47927;42.646;23.096;2023-04-23T04:29:45;92094.00;;;15.83;38.79
61963;BME280;47927;42.646;23.096;2023-04-23T04:32:10;92066.00;;;14.93;40.60
61963;BME280;47927;42.646;23.096;2023-04-23T04:34:39;92099.50;;;14.75;41.49
61963;BME280;47927;42.646;23.096;2023-04-23T04:37:05;92101.34;;;14.78;41.94
61963;BME280;47927;42.646;23.096;2023-04-23T04:39:31;92108.31;;;14.95;42.21
61963;BME280;47927;42.646;23.096;2023-04-23T04:41:57;92074.16;;;14.54;42.60
61963;BME280;47927;42.646;23.096;2023-04-23T04:44:26;92058.53;;;14.36;43.12
61963;BME280;47927;42.646;23.096;2023-04-23T04:46:51;92078.41;;;14.37;42.53
61963;BME280;47927;42.646;23.096;2023-04-23T04:49:17;92109.56;;;15.25;42.11
61963;BME280;47927;42.646;23.096;2023-04-23T04:51:43;92067.69;;;15.14;41.72
61963;BME280;47927;42.646;23.096;2023-04-23T04:54:09;92110.16;;;16.43;40.20
61963;BME280;47927;42.646;23.096;2023-04-23T04:56:35;92114.97;;;17.45;38.83
61963;BME280;47927;42.646;23.096;2023-04-23T04:59:01;92117.84;;;19.03;35.43
61963;BME280;47927;42.646;23.096;2023-04-23T05:01:27;92102.75;;;20.49;32.74
61963;BME280;47927;42.646;23.096;2023-04-23T05:03:56;92110.47;;;21.55;31.07
61963;BME280;47927;42.646;23.096;2023-04-23T05:06:22;92112.03;;;22.53;29.28
61963;BME280;47927;42.646;23.096;2023-04-23T05:08:47;92116.59;;;23.61;27.83
61963;BME280;47927;42.646;23.096;2023-04-23T05:11:17;92115.31;;;25.06;26.14
61963;BME280;47927;42.646;23.096;2023-04-23T05:13:43;92112.50;;;25.58;25.20
61963;BME280;47927;42.646;23.096;2023-04-23T05:16:09;92102.47;;;25.29;24.95
61963;BME280;47927;42.646;23.096;2023-04-23T05:18:37;92125.72;;;26.15;24.42
61963;BME280;47927;42.646;23.096;2023-04-23T05:21:03;92087.41;;;26.48;23.15
61963;BME280;47927;42.646;23.096;2023-04-23T05:23:29;92127.81;;;27.15;22.70
61963;BME280;47927;42.646;23.096;2023-04-23T05:25:54;92130.66;;;27.67;21.99
61963;BME280;47927;42.646;23.096;2023-04-23T05:28:21;92132.72;;;27.78;22.49
61963;BME280;47927;42.646;23.096;2023-04-23T05:30:47;92128.38;;;29.11;20.72
61963;BME280;47927;42.646;23.096;2023-04-23T05:33:13;92117.69;;;28.84;20.53
61963;BME280;47927;42.646;23.096;2023-04-23T05:35:38;92096.34;;;29.98;19.59
61963;BME280;47927;42.646;23.096;2023-04-23T05:38:04;92139.44;;;30.32;19.35
61963;BME280;47927;42.646;23.096;2023-04-23T05:40:31;92146.09;;;30.87;18.21
61963;BME280;47927;42.646;23.096;2023-04-23T05:43:00;92141.94;;;30.98;17.47
61963;BME280;47927;42.646;23.096;2023-04-23T05:45:25;92114.22;;;32.12;16.92
61963;BME280;47927;42.646;23.096;2023-04-23T05:47:51;92146.78;;;32.97;15.60
61963;BME280;47927;42.646;23.096;2023-04-23T05:50:17;92085.22;;;32.95;15.45
61963;BME280;47927;42.646;23.096;2023-04-23T05:52:43;92149.94;;;34.42;15.13
61963;BME280;47927;42.646;23.096;2023-04-23T05:55:09;92149.78;;;34.73;14.44
61963;BME280;47927;42.646;23.096;2023-04-23T05:57:36;92152.09;;;34.44;14.12
61963;BME280;47927;42.646;23.096;2023-04-23T06:00:03;92146.47;;;35.12;13.78
61963;BME280;47927;42.646;23.096;2023-04-23T06:02:38;92155.66;;;35.49;13.32
61963;BME280;47927;42.646;23.096;2023-04-23T06:05:09;92138.38;;;36.18;12.79
61963;BME280;47927;42.646;23.096;2023-04-23T06:07:35;92082.41;;;34.18;14.34
61963;BME280;47927;42.646;23.096;2023-04-23T06:10:01;92156.03;;;35.13;14.50
61963;BME280;47927;42.646;23.096;2023-04-23T06:12:27;92124.31;;;34.81;13.85
61963;BME280;47927;42.646;23.096;2023-04-23T06:14:53;92110.78;;;34.30;14.13
61963;BME280;47927;42.646;23.096;2023-04-23T06:17:18;92156.03;;;35.72;13.68
61963;BME280;47927;42.646;23.096;2023-04-23T06:19:44;92131.25;;;34.77;14.17
61963;BME280;47927;42.646;23.096;2023-04-23T06:22:09;92153.16;;;34.22;14.75
61963;BME280;47927;42.646;23.096;2023-04-23T06:24:35;92158.69;;;34.48;14.45
61963;BME280;47927;42.646;23.096;2023-04-23T06:27:00;92099.41;;;33.01;15.57
61963;BME280;47927;42.646;23.096;2023-04-23T06:29:29;92155.75;;;34.09;15.45
61963;BME280;47927;42.646;23.096;2023-04-23T06:32:01;92117.47;;;34.42;14.30
61963;BME280;47927;42.646;23.096;2023-04-23T06:34:27;92114.69;;;34.67;14.35
61963;BME280;47927;42.646;23.096;2023-04-23T06:36:53;92161.81;;;35.04;13.84
61963;BME280;47927;42.646;23.096;2023-04-23T06:39:18;92157.88;;;35.37;14.23
61963;BME280;47927;42.646;23.096;2023-04-23T06:41:44;92148.19;;;36.08;12.77
61963;BME280;47927;42.646;23.096;2023-04-23T06:44:32;92150.72;;;36.40;12.78
61963;BME280;47927;42.646;23.096;2023-04-23T06:46:58;92155.38;;;36.32;12.73
61963;BME280;47927;42.646;23.096;2023-04-23T06:49:25;92154.53;;;36.92;12.74
61963;BME280;47927;42.646;23.096;2023-04-23T06:51:50;92159.31;;;37.21;12.14
61963;BME280;47927;42.646;23.096;2023-04-23T06:54:16;92122.09;;;36.66;12.39
61963;BME280;47927;42.646;23.096;2023-04-23T06:56:41;92121.19;;;36.50;12.41
61963;BME280;47927;42.646;23.096;2023-04-23T06:59:07;92102.53;;;35.32;13.21
61963;BME280;47927;42.646;23.096;2023-04-23T07:01:36;92159.03;;;36.08;12.98
61963;BME280;47927;42.646;23.096;2023-04-23T07:04:02;92155.16;;;36.30;13.92
61963;BME280;47927;42.646;23.096;2023-04-23T07:06:28;92156.75;;;35.59;14.05
61963;BME280;47927;42.646;23.096;2023-04-23T07:08:54;92147.03;;;36.64;13.06
61963;BME280;47927;42.646;23.096;2023-04-23T07:11:19;92169.81;;;36.48;12.84
61963;BME280;47927;42.646;23.096;2023-04-23T07:13:45;92159.25;;;36.10;13.35
61963;BME280;47927;42.646;23.096;2023-04-23T07:16:12;92160.69;;;36.24;13.40
61963;BME280;47927;42.646;23.096;2023-04-23T07:18:37;92157.31;;;36.32;13.12
61963;BME280;47927;42.646;23.096;2023-04-23T07:21:03;92158.69;;;36.25;13.68
61963;BME280;47927;42.646;23.096;2023-04-23T07:23:30;92160.91;;;35.87;13.79
61963;BME280;47927;42.646;23.096;2023-04-23T07:25:56;92156.47;;;36.50;12.71
61963;BME280;47927;42.646;23.096;2023-04-23T07:28:21;92138.75;;;36.70;13.28
61963;BME280;47927;42.646;23.096;2023-04-23T07:30:47;92159.16;;;36.02;13.69
61963;BME280;47927;42.646;23.096;2023-04-23T07:33:13;92161.97;;;37.13;13.13
61963;BME280;47927;42.646;23.096;2023-04-23T07:35:38;92107.44;;;35.47;13.21
61963;BME280;47927;42.646;23.096;2023-04-23T07:38:04;92155.75;;;36.70;13.02
61963;BME280;47927;42.646;23.096;2023-04-23T07:40:30;92150.78;;;35.87;13.45
61963;BME280;47927;42.646;23.096;2023-04-23T07:42:55;92151.72;;;35.50;14.24
61963;BME280;47927;42.646;23.096;2023-04-23T07:45:23;92116.78;;;35.06;13.58
61963;BME280;47927;42.646;23.096;2023-04-23T07:47:49;92132.19;;;36.31;13.37
61963;BME280;47927;42.646;23.096;2023-04-23T07:50:14;92154.66;;;36.87;12.35
61963;BME280;47927;42.646;23.096;2023-04-23T07:52:40;92147.34;;;36.26;13.15
61963;BME280;47927;42.646;23.096;2023-04-23T07:55:06;92107.53;;;35.42;14.08
61963;BME280;47927;42.646;23.096;2023-04-23T07:57:32;92145.78;;;36.18;13.47
61963;BME280;47927;42.646;23.096;2023-04-23T07:59:57;92145.91;;;35.86;12.88
61963;BME280;47927;42.646;23.096;2023-04-23T08:02:23;92141.56;;;34.02;14.07
61963;BME280;47927;42.646;23.096;2023-04-23T08:04:51;92098.91;;;33.27;15.08
61963;BME280;47927;42.646;23.096;2023-04-23T08:07:17;92121.56;;;34.11;14.26
61963;BME280;47927;42.646;23.096;2023-04-23T08:09:43;92127.84;;;35.35;13.97
61963;BME280;47927;42.646;23.096;2023-04-23T08:12:08;92146.75;;;35.94;13.35
61963;BME280;47927;42.646;23.096;2023-04-23T08:14:34;92157.06;;;35.95;13.24
61963;BME280;47927;42.646;23.096;2023-04-23T08:17:04;92136.13;;;35.56;14.84
61963;BME280;47927;42.646;23.096;2023-04-23T08:19:31;92110.63;;;33.60;14.22
61963;BME280;47927;42.646;23.096;2023-04-23T08:21:58;92096.69;;;34.18;13.66
61963;BME280;47927;42.646;23.096;2023-04-23T08:24:23;92086.78;;;33.83;13.59
61963;BME280;47927;42.646;23.096;2023-04-23T08:26:49;92103.34;;;33.74;13.29
61963;BME280;47927;42.646;23.096;2023-04-23T08:29:14;92133.38;;;34.84;13.30
61963;BME280;47927;42.646;23.096;2023-04-23T08:31:40;92109.09;;;35.10;12.37
61963;BME280;47927;42.646;23.096;2023-04-23T08:34:05;92083.34;;;35.97;12.78
61963;BME280;47927;42.646;23.096;2023-04-23T08:36:31;92136.19;;;36.85;12.40
61963;BME280;47927;42.646;23.096;2023-04-23T08:38:57;92089.53;;;33.09;15.78
61963;BME280;47927;42.646;23.096;2023-04-23T08:41:23;92114.81;;;31.93;17.16
61963;BME280;47927;42.646;23.096;2023-04-23T08:43:54;92126.78;;;30.89;18.28
61963;BME280;47927;42.646;23.096;2023-04-23T08:46:24;92117.88;;;29.50;19.82
61963;BME280;47927;42.646;23.096;2023-04-23T08:48:52;92123.03;;;28.47;20.81
61963;BME280;47927;42.646;23.096;2023-04-23T08:51:18;92123.91;;;27.71;22.09
61963;BME280;47927;42.646;23.096;2023-04-23T08:53:49;92112.72;;;27.32;21.81
61963;BME280;47927;42.646;23.096;2023-04-23T08:56:16;92124.16;;;27.53;21.73
61963;BME280;47927;42.646;23.096;2023-04-23T08:58:44;92086.63;;;27.27;22.09
61963;BME280;47927;42.646;23.096;2023-04-23T09:01:10;92098.78;;;28.10;21.30
61963;BME280;47927;42.646;23.096;2023-04-23T09:03:36;92120.59;;;27.06;23.14
61963;BME280;47927;42.646;23.096;2023-04-23T09:06:02;92119.31;;;26.66;22.31
61963;BME280;47927;42.646;23.096;2023-04-23T09:08:29;92119.47;;;27.13;21.59
61963;BME280;47927;42.646;23.096;2023-04-23T09:11:00;92046.38;;;25.23;23.34
61963;BME280;47927;42.646;23.096;2023-04-23T09:13:25;92095.25;;;26.07;22.94
61963;BME280;47927;42.646;23.096;2023-04-23T09:15:55;92067.47;;;27.95;20.82
61963;BME280;47927;42.646;23.096;2023-04-23T09:18:21;92117.66;;;29.59;19.81
61963;BME280;47927;42.646;23.096;2023-04-23T09:20:46;92116.38;;;30.03;18.95
61963;BME280;47927;42.646;23.096;2023-04-23T09:23:14;92111.13;;;30.76;18.74
61963;BME280;47927;42.646;23.096;2023-04-23T09:25:41;92110.38;;;30.98;18.49
61963;BME280;47927;42.646;23.096;2023-04-23T09:28:07;92104.22;;;31.43;17.60
61963;BME280;47927;42.646;23.096;2023-04-23T09:30:42;92106.34;;;32.61;16.44
61963;BME280;47927;42.646;23.096;2023-04-23T09:33:12;92103.13;;;31.74;16.50
61963;BME280;47927;42.646;23.096;2023-04-23T09:35:38;92051.00;;;30.23;17.58
61963;BME280;47927;42.646;23.096;2023-04-23T09:38:06;92105.16;;;30.16;18.08
61963;BME280;47927;42.646;23.096;2023-04-23T09:40:33;92039.25;;;26.57;21.41
61963;BME280;47927;42.646;23.096;2023-04-23T09:42:58;92099.13;;;25.10;22.99
61963;BME280;47927;42.646;23.096;2023-04-23T09:45:27;92091.53;;;24.93;22.52
61963;BME280;47927;42.646;23.096;2023-04-23T09:47:56;92085.09;;;24.76;24.14
61963;BME280;47927;42.646;23.096;2023-04-23T09:50:40;92084.97;;;24.19;24.99
61963;BME280;47927;42.646;23.096;2023-04-23T09:53:07;92091.91;;;24.25;25.33
61963;BME280;47927;42.646;23.096;2023-04-23T09:55:35;92079.00;;;25.09;24.54
61963;BME280;47927;42.646;23.096;2023-04-23T09:58:04;92051.59;;;25.95;22.89
61963;BME280;47927;42.646;23.096;2023-04-23T10:00:35;92086.03;;;27.38;20.63
61963;BME280;47927;42.646;23.096;2023-04-23T10:03:01;92067.94;;;28.46;19.45
61963;BME280;47927;42.646;23.096;2023-04-23T10:05:27;92065.28;;;29.21;18.88
61963;BME280;47927;42.646;23.096;2023-04-23T10:07:54;92066.31;;;30.00;18.93
61963;BME280;47927;42.646;23.096;2023-04-23T10:10:22;92069.09;;;30.28;18.74
61963;BME280;47927;42.646;23.096;2023-04-23T10:12:51;92074.13;;;30.09;18.51
61963;BME280;47927;42.646;23.096;2023-04-23T10:15:17;92056.34;;;29.41;18.17
61963;BME280;47927;42.646;23.096;2023-04-23T10:17:44;92054.59;;;30.03;18.46
61963;BME280;47927;42.646;23.096;2023-04-23T10:20:11;92030.69;;;30.11;18.49
61963;BME280;47927;42.646;23.096;2023-04-23T10:22:38;92047.56;;;30.56;17.17
61963;BME280;47927;42.646;23.096;2023-04-23T10:25:09;92034.59;;;30.60;16.85
61963;BME280;47927;42.646;23.096;2023-04-23T10:27:43;92044.16;;;30.67;15.58
61963;BME280;47927;42.646;23.096;2023-04-23T10:30:11;92042.19;;;29.40;17.25
61963;BME280;47927;42.646;23.096;2023-04-23T10:32:38;92047.00;;;28.82;17.94
61963;BME280;47927;42.646;23.096;2023-04-23T10:35:05;92043.09;;;27.67;19.27
61963;BME280;47927;42.646;23.096;2023-04-23T10:37:32;92009.28;;;27.70;19.23
61963;BME280;47927;42.646;23.096;2023-04-23T10:40:10;92037.44;;;27.19;19.53
61963;BME280;47927;42.646;23.096;2023-04-23T10:42:42;92032.06;;;27.39;19.99
61963;BME280;47927;42.646;23.096;2023-04-23T10:45:16;92021.34;;;27.60;19.42
61963;BME280;47927;42.646;23.096;2023-04-23T10:47:43;91934.13;;;27.21;19.36
61963;BME280;47927;42.646;23.096;2023-04-23T10:52:48;92008.47;;;26.47;20.14
61963;BME280;47927;42.646;23.096;2023-04-23T10:55:21;92008.63;;;26.73;19.09
61963;BME280;47927;42.646;23.096;2023-04-23T10:58:03;92003.69;;;25.47;19.70
61963;BME280;47927;42.646;23.096;2023-04-23T11:05:54;91996.56;;;25.98;19.13
61963;BME280;47927;42.646;23.096;2023-04-23T11:08:20;91923.25;;;26.28;18.31
61963;BME280;47927;42.646;23.096;2023-04-23T11:10:57;91997.81;;;27.02;19.07
61963;BME280;47927;42.646;23.096;2023-04-23T11:13:24;92010.03;;;26.68;18.58
61963;BME280;47927;42.646;23.096;2023-04-23T11:16:15;91999.38;;;25.50;17.94
61963;BME280;47927;42.646;23.096;2023-04-23T11:19:07;91993.53;;;25.12;18.53
61963;BME280;47927;42.646;23.096;2023-04-23T11:21:55;91995.78;;;24.90;19.79
61963;BME280;47927;42.646;23.096;2023-04-23T11:24:28;91966.72;;;24.44;19.99
61963;BME280;47927;42.646;23.096;2023-04-23T11:26:54;91995.53;;;24.03;20.79
61963;BME280;47927;42.646;23.096;2023-04-23T11:29:20;91948.31;;;23.61;20.75
61963;BME280;47927;42.646;23.096;2023-04-23T11:31:47;91989.81;;;23.95;20.93
61963;BME280;47927;42.646;23.096;2023-04-23T11:34:13;91937.63;;;23.00;20.88
61963;BME280;47927;42.646;23.096;2023-04-23T11:36:40;91959.75;;;23.25;21.82
61963;BME280;47927;42.646;23.096;2023-04-23T11:39:05;91995.75;;;22.98;21.02
61963;BME280;47927;42.646;23.096;2023-04-23T11:41:32;91951.56;;;21.52;21.38
61963;BME280;47927;42.646;23.096;2023-04-23T11:43:57;92000.91;;;22.02;20.66
61963;BME280;47927;42.646;23.096;2023-04-23T11:46:23;91984.69;;;22.10;20.59
61963;BME280;47927;42.646;23.096;2023-04-23T11:48:49;91987.69;;;22.43;20.21
61963;BME280;47927;42.646;23.096;2023-04-23T11:51:15;91995.13;;;22.75;20.55
61963;BME280;47927;42.646;23.096;2023-04-23T11:53:49;91952.91;;;22.68;20.69
61963;BME280;47927;42.646;23.096;2023-04-23T11:56:15;91989.09;;;22.93;19.99
61963;BME280;47927;42.646;23.096;2023-04-23T11:58:40;91982.50;;;22.48;21.97
61963;BME280;47927;42.646;23.096;2023-04-23T12:01:06;91981.91;;;22.44;21.11
61963;BME280;47927;42.646;23.096;2023-04-23T12:03:32;91904.81;;;21.36;21.40
61963;BME280;47927;42.646;23.096;2023-04-23T12:05:58;91963.53;;;21.88;21.86
61963;BME280;47927;42.646;23.096;2023-04-23T12:08:24;91944.63;;;21.76;20.46
61963;BME280;47927;42.646;23.096;2023-04-23T12:13:21;91935.72;;;22.23;18.84
61963;BME280;47927;42.646;23.096;2023-04-23T12:15:56;91981.56;;;22.92;17.58
61963;BME280;47927;42.646;23.096;2023-04-23T12:20:54;91974.00;;;22.72;18.87
61963;BME280;47927;42.646;23.096;2023-04-23T12:23:26;91913.63;;;22.45;18.24
61963;BME280;47927;42.646;23.096;2023-04-23T12:25:55;91890.22;;;22.03;18.65
61963;BME280;47927;42.646;23.096;2023-04-23T12:28:24;91976.44;;;22.97;18.43
61963;BME280;47927;42.646;23.096;2023-04-23T12:30:50;91963.31;;;23.12;17.71
61963;BME280;47927;42.646;23.096;2023-04-23T12:33:16;91957.81;;;23.34;18.14
61963;BME280;47927;42.646;23.096;2023-04-23T12:35:44;91960.28;;;23.65;17.57
61963;BME280;47927;42.646;23.096;2023-04-23T12:40:48;91953.84;;;23.30;20.27
61963;BME280;47927;42.646;23.096;2023-04-23T12:43:13;91971.41;;;23.46;19.57
61963;BME280;47927;42.646;23.096;2023-04-23T12:45:39;91961.50;;;23.37;18.58
61963;BME280;47927;42.646;23.096;2023-04-23T12:48:04;91964.59;;;22.80;19.19
61963;BME280;47927;42.646;23.096;2023-04-23T12:50:30;91951.13;;;22.65;19.37
61963;BME280;47927;42.646;23.096;2023-04-23T12:52:56;91942.63;;;23.07;19.15
61963;BME280;47927;42.646;23.096;2023-04-23T12:55:21;91943.81;;;23.25;20.02
61963;BME280;47927;42.646;23.096;2023-04-23T12:57:47;91944.28;;;23.23;20.47
61963;BME280;47927;42.646;23.096;2023-04-23T13:00:13;91864.19;;;23.39;19.90
61963;BME280;47927;42.646;23.096;2023-04-23T13:02:38;91912.41;;;23.84;18.43
61963;BME280;47927;42.646;23.096;2023-04-23T13:05:04;91930.59;;;23.67;19.77
61963;BME280;47927;42.646;23.096;2023-04-23T13:07:30;91874.50;;;23.56;19.51